createdAt,value
2019-01-19T00:03:05.162Z,12.30
2019-01-19T00:07:17.166Z,16.47
2019-01-19T00:11:40.955Z,15.03
2019-01-19T00:16:02.400Z,11.47
2019-01-19T00:20:28.269Z,13.40
2019-01-19T00:25:02.107Z,18.07
2019-01-19T00:29:11.424Z,15.63
2019-01-19T00:33:46.600Z,16.87
2019-01-19T00:37:53.132Z,16.83
2019-01-19T00:42:11.283Z,18.40
2019-01-19T00:46:17.804Z,19.73
2019-01-19T00:50:33.200Z,17.00
2019-01-19T00:54:39.711Z,15.07
2019-01-19T00:58:46.267Z,18.03
2019-01-19T01:02:55.435Z,13.43
2019-01-19T01:07:23.081Z,11.13
2019-01-19T01:11:32.281Z,13.70
2019-01-19T01:16:03.085Z,13.13
2019-01-19T01:20:21.012Z,20.83
2019-01-19T01:24:36.139Z,17.17
2019-01-19T01:29:05.164Z,10.80
2019-01-19T01:33:17.364Z,9.93
2019-01-19T01:37:35.818Z,10.17
2019-01-19T01:41:48.036Z,12.33
2019-01-19T01:46:17.326Z,10.50
2019-01-19T01:50:23.832Z,13.77
2019-01-19T01:54:33.225Z,26.27
2019-01-19T01:58:54.596Z,13.03
2019-01-19T02:03:03.982Z,16.33
2019-01-19T02:07:25.265Z,23.93
2019-01-19T02:11:31.780Z,18.30
2019-01-19T02:15:50.292Z,18.47
2019-01-19T02:20:14.817Z,26.10
2019-01-19T02:24:54.688Z,20.40
2019-01-19T02:29:09.907Z,8.90
2019-01-19T02:33:34.576Z,8.50
2019-01-19T02:37:55.288Z,8.60
2019-01-19T02:42:01.816Z,9.13
2019-01-19T02:46:23.403Z,8.80
2019-01-19T02:50:35.688Z,9.57
2019-01-19T02:55:06.488Z,9.43
2019-01-19T02:59:18.788Z,8.80
2019-01-19T03:03:34.106Z,7.80
2019-01-19T03:07:49.658Z,8.17
2019-01-19T03:12:15.869Z,8.53
2019-01-19T03:16:37.595Z,8.27
2019-01-19T03:20:44.093Z,7.63
2019-01-19T03:24:59.189Z,7.87
2019-01-19T03:29:05.702Z,8.47
2019-01-19T03:33:12.225Z,7.40
2019-01-19T03:37:39.758Z,6.87
2019-01-19T03:41:49.201Z,6.90
2019-01-19T03:46:21.277Z,7.37
2019-01-19T03:50:33.537Z,7.27
2019-01-19T03:54:40.048Z,7.30
2019-01-19T03:58:52.257Z,6.80
2019-01-19T04:03:01.304Z,6.87
2019-01-19T04:07:07.816Z,7.13
2019-01-19T04:11:29.320Z,7.17
2019-01-19T04:15:44.752Z,7.60
2019-01-19T04:19:54.229Z,7.33
2019-01-19T04:24:00.746Z,7.33
2019-01-19T04:28:05.640Z,8.60
2019-01-19T04:32:09.077Z,11.47
2019-01-19T04:36:21.215Z,12.23
2019-01-19T04:40:18.048Z,8.57
2019-01-19T04:44:21.493Z,12.83
2019-01-19T04:48:25.192Z,14.10
2019-01-19T04:52:28.639Z,14.67
2019-01-19T04:56:32.077Z,11.70
2019-01-19T05:00:35.544Z,12.20
2019-01-19T05:04:39.034Z,9.40
2019-01-19T05:08:42.468Z,9.40
2019-01-19T05:12:45.901Z,7.70
2019-01-19T05:16:49.343Z,7.27
2019-01-19T05:20:53.240Z,7.47
2019-01-19T05:24:56.683Z,7.60
2019-01-19T05:29:00.120Z,7.47
2019-01-19T05:33:03.556Z,7.77
2019-01-19T05:37:06.991Z,7.10
2019-01-19T05:41:10.439Z,7.47
2019-01-19T05:45:14.902Z,7.27
2019-01-19T05:49:18.342Z,7.47
2019-01-19T05:53:21.778Z,7.77
2019-01-19T05:57:25.217Z,7.97
2019-01-19T06:01:29.034Z,7.53
2019-01-19T06:05:32.465Z,7.90
2019-01-19T06:09:35.901Z,6.90
2019-01-19T06:13:39.339Z,7.27
2019-01-19T06:18:02.112Z,8.10
2019-01-19T06:22:06.428Z,7.30
2019-01-19T06:26:09.872Z,6.87
2019-01-19T06:30:16.403Z,7.40
2019-01-19T06:34:19.838Z,6.57
2019-01-19T06:38:23.296Z,7.20
2019-01-19T06:42:26.720Z,7.83
2019-01-19T06:46:30.137Z,7.07
2019-01-19T06:50:33.582Z,7.63
2019-01-19T06:54:37.093Z,7.57
2019-01-19T06:58:40.530Z,7.03
2019-01-19T07:02:43.977Z,7.67
2019-01-19T07:06:47.392Z,7.57
2019-01-19T07:10:50.842Z,8.53
2019-01-19T07:14:54.276Z,9.20
2019-01-19T07:18:57.724Z,9.20
2019-01-19T07:23:01.172Z,9.07
2019-01-19T07:27:04.602Z,9.60
2019-01-19T07:31:08.056Z,11.23
2019-01-19T07:35:11.581Z,10.30
2019-01-19T07:39:15.012Z,9.27
2019-01-19T07:43:19.228Z,9.17
2019-01-19T07:47:23.132Z,8.70
2019-01-19T07:51:26.575Z,9.30
2019-01-19T07:55:30.005Z,9.30
2019-01-19T07:59:33.448Z,8.93
2019-01-19T08:03:36.882Z,9.97
2019-01-19T08:07:40.396Z,10.10
2019-01-19T08:11:43.895Z,10.10
2019-01-19T08:15:47.533Z,9.77
2019-01-19T08:19:51.030Z,10.57
2019-01-19T08:23:54.453Z,10.53
2019-01-19T08:27:57.904Z,11.53
2019-01-19T08:32:01.344Z,11.33
2019-01-19T08:36:05.621Z,10.27
2019-01-19T08:40:17.808Z,10.73
2019-01-19T08:44:21.256Z,9.60
2019-01-19T08:48:24.976Z,9.37
2019-01-19T08:52:28.484Z,9.27
2019-01-19T08:56:31.923Z,9.73
2019-01-19T09:00:35.415Z,9.93
2019-01-19T09:04:38.889Z,9.17
2019-01-19T09:08:42.360Z,10.23
2019-01-19T09:12:45.801Z,9.47
2019-01-19T09:16:49.236Z,9.87
2019-01-19T09:20:52.652Z,9.30
2019-01-19T09:24:56.084Z,9.07
2019-01-19T09:28:59.528Z,9.30
2019-01-19T09:33:03.037Z,9.50
2019-01-19T09:37:06.544Z,9.53
2019-01-19T09:41:10.036Z,10.00
2019-01-19T09:45:15.917Z,10.10
2019-01-19T09:49:19.378Z,9.90
2019-01-19T09:53:22.808Z,9.73
2019-01-19T09:57:26.299Z,9.57
2019-01-19T10:01:29.715Z,10.23
2019-01-19T10:05:33.163Z,10.50
2019-01-19T10:09:36.597Z,10.40
2019-01-19T10:13:40.045Z,9.60
2019-01-19T10:17:43.844Z,10.50
2019-01-19T10:21:47.261Z,10.27
2019-01-19T10:25:50.701Z,10.03
2019-01-19T10:29:54.140Z,9.20
2019-01-19T10:33:57.579Z,9.40
2019-01-19T10:38:00.996Z,9.43
2019-01-19T10:42:04.434Z,9.33
2019-01-19T10:46:07.869Z,9.47
2019-01-19T10:50:16.684Z,9.80
2019-01-19T10:54:20.132Z,9.80
2019-01-19T10:58:23.618Z,9.37
2019-01-19T11:02:27.041Z,9.10
2019-01-19T11:06:30.468Z,9.10
2019-01-19T11:10:35.365Z,5.67
2019-01-19T11:14:38.800Z,5.83
2019-01-19T11:18:42.308Z,6.43
2019-01-19T11:22:45.733Z,6.50
2019-01-19T11:26:49.169Z,7.10
2019-01-19T11:30:52.610Z,6.07
2019-01-19T11:34:56.041Z,5.97
2019-01-19T11:39:01.816Z,6.70
2019-01-19T11:43:06.988Z,6.10
2019-01-19T11:47:10.417Z,6.43
2019-01-19T11:51:13.852Z,5.47
2019-01-19T11:55:19.759Z,6.00
2019-01-19T11:59:23.174Z,5.53
2019-01-19T12:03:26.624Z,5.90
2019-01-19T12:07:30.040Z,5.13
2019-01-19T12:11:33.465Z,5.43
2019-01-19T12:15:36.892Z,4.90
2019-01-19T12:19:40.316Z,5.10
2019-01-19T12:23:43.748Z,5.27
2019-01-19T12:27:47.252Z,5.27
2019-01-19T12:31:50.688Z,4.90
2019-01-19T12:35:54.126Z,4.67
2019-01-19T12:39:57.554Z,4.10
2019-01-19T12:44:00.989Z,4.17
2019-01-19T12:48:04.959Z,4.57
2019-01-19T12:52:08.392Z,4.00
2019-01-19T12:56:11.823Z,3.73
2019-01-19T13:00:27.306Z,4.30
2019-01-19T13:04:30.811Z,3.90
2019-01-19T13:08:34.718Z,4.17
2019-01-19T13:12:38.542Z,3.77
2019-01-19T13:17:04.847Z,3.63
2019-01-19T13:21:29.335Z,3.80
2019-01-19T13:25:41.585Z,3.80
2019-01-19T13:29:53.948Z,3.70
2019-01-19T13:34:29.260Z,3.60
2019-01-19T13:38:41.949Z,3.37
2019-01-19T13:43:03.119Z,3.90
2019-01-19T13:47:41.453Z,3.97
2019-01-19T13:51:47.945Z,3.70
2019-01-19T13:56:18.060Z,3.67
2019-01-19T14:00:42.209Z,3.47
2019-01-19T14:05:21.834Z,3.57
2019-01-19T14:09:31.212Z,3.40
2019-01-19T14:14:00.260Z,3.33
2019-01-19T14:18:18.756Z,3.83
2019-01-19T14:22:40.277Z,3.63
2019-01-19T14:26:52.739Z,3.63
2019-01-19T14:31:18.837Z,3.70
2019-01-19T14:35:31.004Z,3.93
2019-01-19T14:39:55.680Z,3.40
2019-01-19T14:44:26.520Z,3.40
2019-01-19T14:48:49.372Z,3.87
2019-01-19T14:53:16.532Z,4.03
2019-01-19T14:57:28.909Z,4.17
2019-01-19T15:01:41.082Z,4.00
2019-01-19T15:06:21.109Z,3.77
2019-01-19T15:10:30.572Z,4.57
2019-01-19T15:14:39.912Z,4.43
2019-01-19T15:19:06.072Z,4.77
2019-01-19T15:23:30.344Z,4.60
2019-01-19T15:27:48.463Z,6.53
2019-01-19T15:32:10.221Z,8.30
2019-01-19T15:36:19.381Z,5.70
2019-01-19T15:40:49.973Z,6.80
2019-01-19T15:44:59.300Z,8.83
2019-01-19T15:49:22.200Z,11.13
2019-01-19T15:53:31.263Z,8.77
2019-01-19T15:57:52.833Z,9.27
2019-01-19T16:02:20.335Z,9.53
2019-01-19T16:06:39.368Z,9.93
2019-01-19T16:10:51.135Z,7.60
2019-01-19T16:14:57.652Z,7.97
2019-01-19T16:19:18.513Z,8.63
2019-01-19T16:23:36.961Z,8.33
2019-01-19T16:28:04.566Z,8.60
2019-01-19T16:32:14.088Z,6.50
2019-01-19T16:36:45.953Z,8.90
2019-01-19T16:40:58.153Z,8.77
2019-01-19T16:45:19.464Z,8.67
2019-01-19T16:49:31.523Z,8.00
2019-01-19T16:53:50.796Z,7.43
2019-01-19T16:58:06.158Z,6.77
2019-01-19T17:02:24.490Z,7.10
2019-01-19T17:06:45.606Z,8.93
2019-01-19T17:10:52.120Z,9.60
2019-01-19T17:15:10.373Z,9.33
2019-01-19T17:19:16.884Z,8.30
2019-01-19T17:23:38.233Z,9.67
2019-01-19T17:27:47.674Z,7.93
2019-01-19T17:32:03.233Z,8.47
2019-01-19T17:36:09.761Z,8.33
2019-01-19T17:40:37.073Z,8.43
2019-01-19T17:44:58.091Z,8.30
2019-01-19T17:49:25.660Z,8.73
2019-01-19T17:53:54.966Z,8.53
2019-01-19T17:58:01.488Z,10.10
2019-01-19T18:02:16.864Z,11.60
2019-01-19T18:06:35.478Z,12.10
2019-01-19T18:10:56.787Z,11.40
2019-01-19T18:15:15.303Z,14.07
2019-01-19T18:19:33.868Z,16.63
2019-01-19T18:23:52.192Z,13.13
2019-01-19T18:28:10.446Z,13.77
2019-01-19T18:32:22.566Z,15.80
2019-01-19T18:36:48.342Z,16.27
2019-01-19T18:41:00.829Z,13.00
2019-01-19T18:45:13.319Z,14.73
2019-01-19T18:49:25.666Z,15.90
2019-01-19T18:53:32.293Z,15.40
2019-01-19T18:58:12.380Z,15.70
2019-01-19T19:02:21.669Z,16.20
2019-01-19T19:06:34.219Z,15.47
2019-01-19T19:10:44.225Z,15.77
2019-01-19T19:14:59.641Z,14.93
2019-01-19T19:19:23.657Z,15.37
2019-01-19T19:23:46.808Z,14.80
2019-01-19T19:28:14.566Z,15.23
2019-01-19T19:32:39.488Z,14.73
2019-01-19T19:36:46.013Z,15.40
2019-01-19T19:41:07.512Z,15.73
2019-01-19T19:45:14.019Z,16.70
2019-01-19T19:49:32.541Z,17.40
2019-01-19T19:53:35.996Z,17.23
2019-01-19T19:57:39.421Z,14.80
2019-01-19T20:01:42.867Z,14.70
2019-01-19T20:05:46.308Z,15.37
2019-01-19T20:09:49.770Z,15.33
2019-01-19T20:13:53.298Z,15.53
2019-01-19T20:17:56.751Z,15.50
2019-01-19T20:22:00.259Z,15.70
2019-01-19T20:26:03.773Z,15.03
2019-01-19T20:30:12.962Z,14.23
2019-01-19T20:34:16.395Z,16.27
2019-01-19T20:38:19.854Z,15.63
2019-01-19T20:42:23.317Z,14.93
2019-01-19T20:46:26.757Z,15.63
2019-01-19T20:50:30.216Z,15.53
2019-01-19T20:54:33.643Z,14.97
2019-01-19T20:58:37.085Z,19.47
2019-01-19T21:02:40.537Z,19.27
2019-01-19T21:06:43.997Z,18.63
2019-01-19T21:10:47.445Z,19.97
2019-01-19T21:14:50.892Z,16.80
2019-01-19T21:18:54.360Z,17.17
2019-01-19T21:22:57.830Z,18.20
2019-01-19T21:27:01.280Z,18.53
2019-01-19T21:31:04.728Z,18.33
2019-01-19T21:35:09.164Z,17.57
2019-01-19T21:39:12.596Z,18.93
2019-01-19T21:43:16.060Z,17.20
2019-01-19T21:47:19.519Z,17.70
2019-01-19T21:51:23.018Z,17.97
2019-01-19T21:55:26.460Z,18.33
2019-01-19T21:59:29.931Z,20.00
2019-01-19T22:03:33.436Z,19.50
2019-01-19T22:07:36.899Z,17.87
2019-01-19T22:11:40.340Z,17.80
2019-01-19T22:15:43.836Z,18.13
2019-01-19T22:19:47.288Z,24.83
2019-01-19T22:23:50.742Z,17.20
2019-01-19T22:27:54.184Z,18.60
2019-01-19T22:31:57.618Z,18.03
2019-01-19T22:36:01.068Z,17.10
2019-01-19T22:40:07.668Z,16.23
2019-01-19T22:44:11.128Z,16.57
2019-01-19T22:48:14.633Z,16.20
2019-01-19T22:52:18.059Z,15.93
2019-01-19T22:56:21.532Z,16.43
2019-01-19T23:00:51.575Z,17.53
2019-01-19T23:04:55.021Z,23.00
2019-01-19T23:08:58.457Z,17.27
2019-01-19T23:13:01.954Z,16.30
2019-01-19T23:17:05.395Z,15.47
2019-01-19T23:21:08.841Z,20.03
2019-01-19T23:25:12.288Z,19.87
2019-01-19T23:29:15.732Z,18.20
2019-01-19T23:33:19.163Z,20.07
2019-01-19T23:37:22.613Z,15.30
2019-01-19T23:41:26.056Z,15.27
2019-01-19T23:45:29.499Z,15.47
2019-01-19T23:49:32.916Z,15.10
2019-01-19T23:53:36.365Z,15.77
2019-01-19T23:57:39.812Z,19.43
